MSC Vanessa — HOWD — position and weather

sailwx.info

Track history (hours):
 
Tides and Currents Weather Stations Pressure Air Temp Water Temp Dewpoint Dewpoint Depression Visibility Wind Speed Wind Dir Waves Ship Positions

MSC Vanessa

Last reported at 2015-Aug-28 01:07 UTC. Time now 2015-Aug-29 12:44 UTC.
Position S 28°16' W 048°20'.

Length 300 m; draft 9.3 m.

Type: Ship (hazmat cat B). MMSI: 356946000.

Date/timePositionNaut miles runAvg speedWind from/ knotsBaromVisibWave heightAir tempDewpointWater temp
2015-Aug-28 01:07S 28°16' W 048°20'914.0
2015-Aug-28 00:29S 28°07' W 048°19'1414.0
2015-Aug-27 23:29S 27°54' W 048°16'1314.0
2015-Aug-27 22:33S 27°41' W 048°14'1413.7
2015-Aug-27 21:33S 27°27' W 048°12'  
2015-Aug-24 03:31S 13°26' W 038°32'1717.3
2015-Aug-24 02:33S 13°09' W 038°34'1312.7
2015-Aug-24 01:33S 12°57' W 038°32'2 1.6
2015-Aug-24 00:32S 12°58' W 038°31'0 0.0
2015-Aug-23 23:32S 12°58' W 038°31'0 0.0
2015-Aug-23 22:32S 12°58' W 038°31'0 0.0
2015-Aug-23 21:32S 12°58' W 038°31'0 0.0
2015-Aug-23 20:32S 12°58' W 038°31'0 0.0
2015-Aug-23 19:32S 12°58' W 038°31'0 0.0
2015-Aug-23 18:32S 12°58' W 038°31'0 0.0
2015-Aug-23 17:32S 12°58' W 038°31'0 0.0
2015-Aug-23 16:26S 12°58' W 038°31'0 0.0
2015-Aug-23 15:32S 12°58' W 038°31'0 0.0
2015-Aug-23 14:32S 12°58' W 038°31'0 0.0
2015-Aug-23 13:32S 12°58' W 038°31'0 0.0
2015-Aug-23 12:32S 12°58' W 038°31'0 0.0
2015-Aug-23 11:32S 12°58' W 038°31'0 0.0
2015-Aug-23 10:32S 12°58' W 038°31'0 0.0
2015-Aug-23 09:29S 12°58' W 038°31'0 0.0
2015-Aug-23 08:32S 12°58' W 038°31'0 0.0
2015-Aug-23 07:32S 12°58' W 038°31'0 0.0
2015-Aug-23 06:32S 12°58' W 038°31'0 0.0
2015-Aug-23 05:32S 12°58' W 038°31'0 0.0
2015-Aug-23 04:29S 12°58' W 038°31'0 0.0
2015-Aug-23 03:32S 12°58' W 038°31'0 0.0
2015-Aug-23 02:32S 12°58' W 038°31'0 0.0
2015-Aug-23 01:32S 12°58' W 038°31'1 0.9
2015-Aug-23 00:33S 12°57' W 038°31'7 6.6
2015-Aug-22 23:30S 13°03' W 038°35'8 8.2
2015-Aug-22 22:33S 13°11' W 038°37'1 1.5
2015-Aug-22 21:33S 13°10' W 038°35'1 1.5
2015-Aug-22 20:34S 13°11' W 038°34'7 7.2
2015-Aug-22 19:33S 13°11' W 038°26'  
Track history (hours):
 
Tides and Currents Weather Stations Pressure Air Temp Water Temp Dewpoint Dewpoint Depression Visibility Wind Speed Wind Dir Waves Ship Positions

MSC Vanessa

Last reported at 2015-Aug-28 01:07 UTC. Time now 2015-Aug-29 12:44 UTC.
Position S 28°16' W 048°20'.

Length 300 m; draft 9.3 m.

Type: Ship (hazmat cat B). MMSI: 356946000.

Date/timePositionNaut miles runAvg speedWind from/ knotsBaromVisibWave heightAir tempDewpointWater temp
2015-Aug-28 01:07S 28°16' W 048°20'914.0
2015-Aug-28 00:29S 28°07' W 048°19'1414.0
2015-Aug-27 23:29S 27°54' W 048°16'1314.0
2015-Aug-27 22:33S 27°41' W 048°14'1413.7
2015-Aug-27 21:33S 27°27' W 048°12'  
2015-Aug-24 03:31S 13°26' W 038°32'1717.3
2015-Aug-24 02:33S 13°09' W 038°34'1312.7
2015-Aug-24 01:33S 12°57' W 038°32'2 1.6
2015-Aug-24 00:32S 12°58' W 038°31'0 0.0
2015-Aug-23 23:32S 12°58' W 038°31'0 0.0
2015-Aug-23 22:32S 12°58' W 038°31'0 0.0
2015-Aug-23 21:32S 12°58' W 038°31'0 0.0
2015-Aug-23 20:32S 12°58' W 038°31'0 0.0
2015-Aug-23 19:32S 12°58' W 038°31'0 0.0
2015-Aug-23 18:32S 12°58' W 038°31'0 0.0
2015-Aug-23 17:32S 12°58' W 038°31'0 0.0
2015-Aug-23 16:26S 12°58' W 038°31'0 0.0
2015-Aug-23 15:32S 12°58' W 038°31'0 0.0
2015-Aug-23 14:32S 12°58' W 038°31'0 0.0
2015-Aug-23 13:32S 12°58' W 038°31'0 0.0
2015-Aug-23 12:32S 12°58' W 038°31'0 0.0
2015-Aug-23 11:32S 12°58' W 038°31'0 0.0
2015-Aug-23 10:32S 12°58' W 038°31'0 0.0
2015-Aug-23 09:29S 12°58' W 038°31'0 0.0
2015-Aug-23 08:32S 12°58' W 038°31'0 0.0
2015-Aug-23 07:32S 12°58' W 038°31'0 0.0
2015-Aug-23 06:32S 12°58' W 038°31'0 0.0
2015-Aug-23 05:32S 12°58' W 038°31'0 0.0
2015-Aug-23 04:29S 12°58' W 038°31'0 0.0
2015-Aug-23 03:32S 12°58' W 038°31'0 0.0
2015-Aug-23 02:32S 12°58' W 038°31'0 0.0
2015-Aug-23 01:32S 12°58' W 038°31'1 0.9
2015-Aug-23 00:33S 12°57' W 038°31'7 6.6
2015-Aug-22 23:30S 13°03' W 038°35'8 8.2
2015-Aug-22 22:33S 13°11' W 038°37'1 1.5
2015-Aug-22 21:33S 13°10' W 038°35'1 1.5
2015-Aug-22 20:34S 13°11' W 038°34'7 7.2
2015-Aug-22 19:33S 13°11' W 038°26'  

Dump ship's entire track history